sensor_id;sensor_type;location;lat;lon;timestamp;temperature;humidity
16392;DHT22;8305;-33.882;151.134;2023-05-08T00:01:14;13.70;99.90
16392;DHT22;8305;-33.882;151.134;2023-05-08T00:03:45;13.80;99.90
16392;DHT22;8305;-33.882;151.134;2023-05-08T00:06:16;13.90;99.90
16392;DHT22;8305;-33.882;151.134;2023-05-08T00:08:47;14.10;99.90
16392;DHT22;8305;-33.882;151.134;2023-05-08T00:11:18;14.20;99.90
16392;DHT22;8305;-33.882;151.134;2023-05-08T00:13:52;14.20;99.90
16392;DHT22;8305;-33.882;151.134;2023-05-08T00:16:23;14.40;99.90
16392;DHT22;8305;-33.882;151.134;2023-05-08T00:18:54;14.50;99.90
16392;DHT22;8305;-33.882;151.134;2023-05-08T00:21:25;14.40;99.90
16392;DHT22;8305;-33.882;151.134;2023-05-08T00:23:56;14.50;99.90
16392;DHT22;8305;-33.882;151.134;2023-05-08T00:26:27;14.70;99.90
16392;DHT22;8305;-33.882;151.134;2023-05-08T00:29:01;14.70;99.90
16392;DHT22;8305;-33.882;151.134;2023-05-08T00:31:33;14.80;99.90
16392;DHT22;8305;-33.882;151.134;2023-05-08T00:34:04;14.80;99.90
16392;DHT22;8305;-33.882;151.134;2023-05-08T00:36:35;14.80;99.90
16392;DHT22;8305;-33.882;151.134;2023-05-08T00:39:07;14.90;99.90
16392;DHT22;8305;-33.882;151.134;2023-05-08T00:41:38;15.10;99.90
16392;DHT22;8305;-33.882;151.134;2023-05-08T00:44:11;15.20;99.90
16392;DHT22;8305;-33.882;151.134;2023-05-08T00:46:43;15.20;99.90
16392;DHT22;8305;-33.882;151.134;2023-05-08T00:49:14;15.20;99.90
16392;DHT22;8305;-33.882;151.134;2023-05-08T00:51:46;15.10;99.90
16392;DHT22;8305;-33.882;151.134;2023-05-08T00:54:18;15.10;99.90
16392;DHT22;8305;-33.882;151.134;2023-05-08T00:56:51;15.10;99.90
16392;DHT22;8305;-33.882;151.134;2023-05-08T00:59:25;15.10;99.90
16392;DHT22;8305;-33.882;151.134;2023-05-08T01:01:56;15.20;99.90
16392;DHT22;8305;-33.882;151.134;2023-05-08T01:04:28;15.20;99.90
16392;DHT22;8305;-33.882;151.134;2023-05-08T01:07:00;15.30;99.90
16392;DHT22;8305;-33.882;151.134;2023-05-08T01:09:31;15.30;99.90
16392;DHT22;8305;-33.882;151.134;2023-05-08T01:12:09;15.40;99.90
16392;DHT22;8305;-33.882;151.134;2023-05-08T01:15:05;15.50;99.90
16392;DHT22;8305;-33.882;151.134;2023-05-08T01:17:49;15.70;99.90
16392;DHT22;8305;-33.882;151.134;2023-05-08T01:20:33;15.90;99.90
16392;DHT22;8305;-33.882;151.134;2023-05-08T01:23:46;16.00;99.90
16392;DHT22;8305;-33.882;151.134;2023-05-08T01:32:25;15.40;99.90
16392;DHT22;8305;-33.882;151.134;2023-05-08T01:35:04;15.40;99.90
16392;DHT22;8305;-33.882;151.134;2023-05-08T01:37:41;15.50;99.90
16392;DHT22;8305;-33.882;151.134;2023-05-08T01:40:23;15.50;99.90
16392;DHT22;8305;-33.882;151.134;2023-05-08T01:43:06;15.40;99.90
16392;DHT22;8305;-33.882;151.134;2023-05-08T01:45:43;15.50;99.90
16392;DHT22;8305;-33.882;151.134;2023-05-08T01:48:24;15.60;99.90
16392;DHT22;8305;-33.882;151.134;2023-05-08T01:51:02;15.50;99.90
16392;DHT22;8305;-33.882;151.134;2023-05-08T01:53:37;15.70;99.90
16392;DHT22;8305;-33.882;151.134;2023-05-08T01:56:12;16.00;99.90
16392;DHT22;8305;-33.882;151.134;2023-05-08T01:58:45;16.10;99.90
16392;DHT22;8305;-33.882;151.134;2023-05-08T02:01:19;16.20;99.90
16392;DHT22;8305;-33.882;151.134;2023-05-08T02:03:56;16.20;99.90
16392;DHT22;8305;-33.882;151.134;2023-05-08T02:06:28;16.30;99.90
16392;DHT22;8305;-33.882;151.134;2023-05-08T02:09:01;16.30;99.90
16392;DHT22;8305;-33.882;151.134;2023-05-08T02:11:33;16.10;99.90
16392;DHT22;8305;-33.882;151.134;2023-05-08T02:14:06;15.90;99.90
16392;DHT22;8305;-33.882;151.134;2023-05-08T02:16:39;15.80;99.90
16392;DHT22;8305;-33.882;151.134;2023-05-08T02:19:15;15.80;99.90
16392;DHT22;8305;-33.882;151.134;2023-05-08T02:21:47;15.80;99.90
16392;DHT22;8305;-33.882;151.134;2023-05-08T02:24:20;15.90;99.90
16392;DHT22;8305;-33.882;151.134;2023-05-08T02:26:53;15.90;99.90
16392;DHT22;8305;-33.882;151.134;2023-05-08T02:29:26;16.00;99.90
16392;DHT22;8305;-33.882;151.134;2023-05-08T02:31:58;16.10;99.90
16392;DHT22;8305;-33.882;151.134;2023-05-08T02:34:32;16.10;99.90
16392;DHT22;8305;-33.882;151.134;2023-05-08T02:37:05;16.20;99.90
16392;DHT22;8305;-33.882;151.134;2023-05-08T02:39:37;16.30;99.90
16392;DHT22;8305;-33.882;151.134;2023-05-08T02:42:09;16.30;99.90
16392;DHT22;8305;-33.882;151.134;2023-05-08T02:44:40;16.30;99.90
16392;DHT22;8305;-33.882;151.134;2023-05-08T02:47:16;16.20;99.90
16392;DHT22;8305;-33.882;151.134;2023-05-08T02:49:53;16.20;99.90
16392;DHT22;8305;-33.882;151.134;2023-05-08T02:52:29;16.20;99.90
16392;DHT22;8305;-33.882;151.134;2023-05-08T02:55:06;16.10;99.90
16392;DHT22;8305;-33.882;151.134;2023-05-08T02:57:52;16.00;99.90
16392;DHT22;8305;-33.882;151.134;2023-05-08T03:00:30;16.00;99.90
16392;DHT22;8305;-33.882;151.134;2023-05-08T03:03:06;16.00;99.90
16392;DHT22;8305;-33.882;151.134;2023-05-08T03:05:43;15.90;99.90
16392;DHT22;8305;-33.882;151.134;2023-05-08T03:08:25;15.90;99.90
16392;DHT22;8305;-33.882;151.134;2023-05-08T03:11:00;15.90;99.90
16392;DHT22;8305;-33.882;151.134;2023-05-08T03:13:34;15.90;99.90
16392;DHT22;8305;-33.882;151.134;2023-05-08T03:16:13;15.90;99.90
16392;DHT22;8305;-33.882;151.134;2023-05-08T03:18:53;15.90;99.90
16392;DHT22;8305;-33.882;151.134;2023-05-08T03:21:29;15.90;99.90
16392;DHT22;8305;-33.882;151.134;2023-05-08T03:24:02;15.90;99.90
16392;DHT22;8305;-33.882;151.134;2023-05-08T03:26:34;15.90;99.90
16392;DHT22;8305;-33.882;151.134;2023-05-08T03:29:06;16.00;99.90
16392;DHT22;8305;-33.882;151.134;2023-05-08T03:31:39;16.10;99.90
16392;DHT22;8305;-33.882;151.134;2023-05-08T03:34:12;16.10;99.90
16392;DHT22;8305;-33.882;151.134;2023-05-08T03:36:49;16.20;99.90
16392;DHT22;8305;-33.882;151.134;2023-05-08T03:39:21;16.20;99.90
16392;DHT22;8305;-33.882;151.134;2023-05-08T03:41:53;16.20;99.90
16392;DHT22;8305;-33.882;151.134;2023-05-08T03:44:26;16.30;99.90
16392;DHT22;8305;-33.882;151.134;2023-05-08T03:46:58;16.30;99.90
16392;DHT22;8305;-33.882;151.134;2023-05-08T03:49:30;16.30;99.90
16392;DHT22;8305;-33.882;151.134;2023-05-08T03:52:04;16.30;99.90
16392;DHT22;8305;-33.882;151.134;2023-05-08T03:54:35;16.30;99.90
16392;DHT22;8305;-33.882;151.134;2023-05-08T03:57:06;16.40;99.90
16392;DHT22;8305;-33.882;151.134;2023-05-08T03:59:58;16.40;99.90
16392;DHT22;8305;-33.882;151.134;2023-05-08T04:02:35;16.40;99.90
16392;DHT22;8305;-33.882;151.134;2023-05-08T04:05:12;16.40;99.90
16392;DHT22;8305;-33.882;151.134;2023-05-08T04:07:58;16.40;99.90
16392;DHT22;8305;-33.882;151.134;2023-05-08T04:10:34;16.30;99.90
16392;DHT22;8305;-33.882;151.134;2023-05-08T04:13:09;16.30;99.90
16392;DHT22;8305;-33.882;151.134;2023-05-08T04:15:46;16.30;99.90
16392;DHT22;8305;-33.882;151.134;2023-05-08T04:18:21;16.20;99.90
16392;DHT22;8305;-33.882;151.134;2023-05-08T04:20:56;16.20;99.90
16392;DHT22;8305;-33.882;151.134;2023-05-08T04:23:31;16.20;99.90
16392;DHT22;8305;-33.882;151.134;2023-05-08T04:26:05;16.20;99.90
16392;DHT22;8305;-33.882;151.134;2023-05-08T04:28:37;16.20;99.90
16392;DHT22;8305;-33.882;151.134;2023-05-08T04:31:10;16.20;99.90
16392;DHT22;8305;-33.882;151.134;2023-05-08T04:33:42;16.20;99.90
16392;DHT22;8305;-33.882;151.134;2023-05-08T04:36:14;16.20;99.90
16392;DHT22;8305;-33.882;151.134;2023-05-08T04:38:47;16.10;99.90
16392;DHT22;8305;-33.882;151.134;2023-05-08T04:41:18;16.10;99.90
16392;DHT22;8305;-33.882;151.134;2023-05-08T04:43:50;16.10;99.90
16392;DHT22;8305;-33.882;151.134;2023-05-08T04:46:21;16.20;99.90
16392;DHT22;8305;-33.882;151.134;2023-05-08T04:48:52;16.10;99.90
16392;DHT22;8305;-33.882;151.134;2023-05-08T04:51:23;16.10;99.90
16392;DHT22;8305;-33.882;151.134;2023-05-08T04:53:56;16.10;99.90
16392;DHT22;8305;-33.882;151.134;2023-05-08T04:56:27;16.10;99.90
16392;DHT22;8305;-33.882;151.134;2023-05-08T04:58:58;16.00;99.90
16392;DHT22;8305;-33.882;151.134;2023-05-08T05:01:30;16.00;99.90
16392;DHT22;8305;-33.882;151.134;2023-05-08T05:04:01;15.90;99.90
16392;DHT22;8305;-33.882;151.134;2023-05-08T05:06:32;15.90;99.90
16392;DHT22;8305;-33.882;151.134;2023-05-08T05:09:05;15.90;99.90
16392;DHT22;8305;-33.882;151.134;2023-05-08T05:11:36;15.90;99.90
16392;DHT22;8305;-33.882;151.134;2023-05-08T05:14:07;15.80;99.90
16392;DHT22;8305;-33.882;151.134;2023-05-08T05:16:38;15.80;99.90
16392;DHT22;8305;-33.882;151.134;2023-05-08T05:19:10;15.80;99.90
16392;DHT22;8305;-33.882;151.134;2023-05-08T05:21:41;15.80;99.90
16392;DHT22;8305;-33.882;151.134;2023-05-08T05:24:14;15.80;99.90
16392;DHT22;8305;-33.882;151.134;2023-05-08T05:26:45;15.80;99.90
16392;DHT22;8305;-33.882;151.134;2023-05-08T05:29:16;15.80;99.90
16392;DHT22;8305;-33.882;151.134;2023-05-08T05:31:47;15.70;99.90
16392;DHT22;8305;-33.882;151.134;2023-05-08T05:34:18;15.80;99.90
16392;DHT22;8305;-33.882;151.134;2023-05-08T05:36:49;15.80;99.90
16392;DHT22;8305;-33.882;151.134;2023-05-08T05:39:22;15.70;99.90
16392;DHT22;8305;-33.882;151.134;2023-05-08T05:41:53;15.70;99.90
16392;DHT22;8305;-33.882;151.134;2023-05-08T05:44:24;15.70;99.90
16392;DHT22;8305;-33.882;151.134;2023-05-08T05:46:55;15.70;99.90
16392;DHT22;8305;-33.882;151.134;2023-05-08T05:49:26;15.70;99.90
16392;DHT22;8305;-33.882;151.134;2023-05-08T05:51:57;15.70;99.90
16392;DHT22;8305;-33.882;151.134;2023-05-08T05:54:30;15.60;99.90
16392;DHT22;8305;-33.882;151.134;2023-05-08T05:57:02;15.70;99.90
16392;DHT22;8305;-33.882;151.134;2023-05-08T05:59:33;15.70;99.90
16392;DHT22;8305;-33.882;151.134;2023-05-08T06:02:04;15.70;99.90
16392;DHT22;8305;-33.882;151.134;2023-05-08T06:04:37;15.70;99.90
16392;DHT22;8305;-33.882;151.134;2023-05-08T06:07:08;15.70;99.90
16392;DHT22;8305;-33.882;151.134;2023-05-08T06:09:41;15.70;99.90
16392;DHT22;8305;-33.882;151.134;2023-05-08T06:12:12;15.70;99.90
16392;DHT22;8305;-33.882;151.134;2023-05-08T06:14:43;15.70;99.90
16392;DHT22;8305;-33.882;151.134;2023-05-08T06:17:14;15.70;99.90
16392;DHT22;8305;-33.882;151.134;2023-05-08T06:19:45;15.70;99.90
16392;DHT22;8305;-33.882;151.134;2023-05-08T06:22:17;15.70;99.90
16392;DHT22;8305;-33.882;151.134;2023-05-08T06:24:52;15.70;99.90
16392;DHT22;8305;-33.882;151.134;2023-05-08T06:27:24;15.70;99.90
16392;DHT22;8305;-33.882;151.134;2023-05-08T06:29:55;15.70;99.90
16392;DHT22;8305;-33.882;151.134;2023-05-08T06:32:26;15.70;99.90
16392;DHT22;8305;-33.882;151.134;2023-05-08T06:34:57;15.70;99.90
16392;DHT22;8305;-33.882;151.134;2023-05-08T06:37:28;15.60;99.90
16392;DHT22;8305;-33.882;151.134;2023-05-08T06:40:02;15.60;99.90
16392;DHT22;8305;-33.882;151.134;2023-05-08T06:42:33;15.60;99.90
16392;DHT22;8305;-33.882;151.134;2023-05-08T06:45:05;15.60;99.90
16392;DHT22;8305;-33.882;151.134;2023-05-08T06:47:36;15.70;99.90
16392;DHT22;8305;-33.882;151.134;2023-05-08T06:50:07;15.60;99.90
16392;DHT22;8305;-33.882;151.134;2023-05-08T06:52:39;15.60;99.90
16392;DHT22;8305;-33.882;151.134;2023-05-08T06:55:12;15.70;99.90
16392;DHT22;8305;-33.882;151.134;2023-05-08T06:57:43;15.70;99.90
16392;DHT22;8305;-33.882;151.134;2023-05-08T07:00:15;15.70;99.90
16392;DHT22;8305;-33.882;151.134;2023-05-08T07:02:46;15.70;99.90
16392;DHT22;8305;-33.882;151.134;2023-05-08T07:05:17;15.70;99.90
16392;DHT22;8305;-33.882;151.134;2023-05-08T07:07:48;15.60;99.90
16392;DHT22;8305;-33.882;151.134;2023-05-08T07:10:23;15.60;99.90
16392;DHT22;8305;-33.882;151.134;2023-05-08T07:12:54;15.60;99.90
16392;DHT22;8305;-33.882;151.134;2023-05-08T07:15:25;15.60;99.90
16392;DHT22;8305;-33.882;151.134;2023-05-08T07:17:56;15.60;99.90
16392;DHT22;8305;-33.882;151.134;2023-05-08T07:20:27;15.70;99.90
16392;DHT22;8305;-33.882;151.134;2023-05-08T07:22:59;15.60;99.90
16392;DHT22;8305;-33.882;151.134;2023-05-08T07:25:32;15.60;99.90
16392;DHT22;8305;-33.882;151.134;2023-05-08T07:28:03;15.60;99.90
16392;DHT22;8305;-33.882;151.134;2023-05-08T07:30:35;15.50;99.90
16392;DHT22;8305;-33.882;151.134;2023-05-08T07:33:06;15.50;99.90
16392;DHT22;8305;-33.882;151.134;2023-05-08T07:35:39;15.40;99.90
16392;DHT22;8305;-33.882;151.134;2023-05-08T07:38:10;15.40;99.90
16392;DHT22;8305;-33.882;151.134;2023-05-08T07:40:43;15.30;99.90
16392;DHT22;8305;-33.882;151.134;2023-05-08T07:43:15;15.30;99.90
16392;DHT22;8305;-33.882;151.134;2023-05-08T07:45:47;15.30;99.90
16392;DHT22;8305;-33.882;151.134;2023-05-08T07:48:18;15.20;99.90
16392;DHT22;8305;-33.882;151.134;2023-05-08T07:50:50;15.30;99.90
16392;DHT22;8305;-33.882;151.134;2023-05-08T07:53:21;15.30;99.90
16392;DHT22;8305;-33.882;151.134;2023-05-08T07:55:54;15.20;99.90
16392;DHT22;8305;-33.882;151.134;2023-05-08T07:58:25;15.30;99.90
16392;DHT22;8305;-33.882;151.134;2023-05-08T08:00:56;15.20;99.90
16392;DHT22;8305;-33.882;151.134;2023-05-08T08:03:28;15.20;99.90
16392;DHT22;8305;-33.882;151.134;2023-05-08T08:05:59;15.20;99.90
16392;DHT22;8305;-33.882;151.134;2023-05-08T08:08:31;15.20;99.90
16392;DHT22;8305;-33.882;151.134;2023-05-08T08:11:04;15.20;99.90
16392;DHT22;8305;-33.882;151.134;2023-05-08T08:13:35;15.20;99.90
16392;DHT22;8305;-33.882;151.134;2023-05-08T08:16:06;15.10;99.90
16392;DHT22;8305;-33.882;151.134;2023-05-08T08:18:38;15.10;99.90
16392;DHT22;8305;-33.882;151.134;2023-05-08T08:21:09;15.10;99.90
16392;DHT22;8305;-33.882;151.134;2023-05-08T08:23:40;15.10;99.90
16392;DHT22;8305;-33.882;151.134;2023-05-08T08:26:13;15.00;99.90
16392;DHT22;8305;-33.882;151.134;2023-05-08T08:28:44;15.00;99.90
16392;DHT22;8305;-33.882;151.134;2023-05-08T08:31:15;14.90;99.90
16392;DHT22;8305;-33.882;151.134;2023-05-08T08:33:46;14.90;99.90
16392;DHT22;8305;-33.882;151.134;2023-05-08T08:36:18;14.80;99.90
16392;DHT22;8305;-33.882;151.134;2023-05-08T08:38:49;14.80;99.90
16392;DHT22;8305;-33.882;151.134;2023-05-08T08:41:22;14.80;99.90
16392;DHT22;8305;-33.882;151.134;2023-05-08T08:43:55;14.80;99.90
16392;DHT22;8305;-33.882;151.134;2023-05-08T08:46:27;14.70;99.90
16392;DHT22;8305;-33.882;151.134;2023-05-08T08:48:59;14.60;99.90
16392;DHT22;8305;-33.882;151.134;2023-05-08T08:51:34;14.60;99.90
16392;DHT22;8305;-33.882;151.134;2023-05-08T08:54:09;14.50;99.90
16392;DHT22;8305;-33.882;151.134;2023-05-08T08:56:45;14.50;99.90
16392;DHT22;8305;-33.882;151.134;2023-05-08T08:59:18;14.50;99.90
16392;DHT22;8305;-33.882;151.134;2023-05-08T09:01:52;14.40;99.90
16392;DHT22;8305;-33.882;151.134;2023-05-08T09:04:24;14.40;99.90
16392;DHT22;8305;-33.882;151.134;2023-05-08T09:06:58;14.30;99.90
16392;DHT22;8305;-33.882;151.134;2023-05-08T09:09:32;14.30;99.90
16392;DHT22;8305;-33.882;151.134;2023-05-08T09:12:07;14.30;99.90
16392;DHT22;8305;-33.882;151.134;2023-05-08T09:14:38;14.30;99.90
16392;DHT22;8305;-33.882;151.134;2023-05-08T09:17:10;14.20;99.90
16392;DHT22;8305;-33.882;151.134;2023-05-08T09:19:41;14.20;99.90
16392;DHT22;8305;-33.882;151.134;2023-05-08T09:22:13;14.20;99.90
16392;DHT22;8305;-33.882;151.134;2023-05-08T09:24:57;14.20;99.90
16392;DHT22;8305;-33.882;151.134;2023-05-08T09:27:32;14.20;99.90
16392;DHT22;8305;-33.882;151.134;2023-05-08T09:30:04;14.20;99.90
16392;DHT22;8305;-33.882;151.134;2023-05-08T09:32:36;14.20;99.90
16392;DHT22;8305;-33.882;151.134;2023-05-08T09:35:09;14.10;99.90
16392;DHT22;8305;-33.882;151.134;2023-05-08T09:37:41;14.10;99.90
16392;DHT22;8305;-33.882;151.134;2023-05-08T09:40:17;14.10;99.90
16392;DHT22;8305;-33.882;151.134;2023-05-08T09:42:50;14.00;99.90
16392;DHT22;8305;-33.882;151.134;2023-05-08T09:45:31;14.00;99.90
16392;DHT22;8305;-33.882;151.134;2023-05-08T09:48:06;14.00;99.90
16392;DHT22;8305;-33.882;151.134;2023-05-08T09:50:37;14.00;99.90
16392;DHT22;8305;-33.882;151.134;2023-05-08T09:53:08;14.00;99.90
16392;DHT22;8305;-33.882;151.134;2023-05-08T09:55:56;14.00;99.90
16392;DHT22;8305;-33.882;151.134;2023-05-08T09:58:38;14.00;99.90
16392;DHT22;8305;-33.882;151.134;2023-05-08T10:01:27;13.90;99.90
16392;DHT22;8305;-33.882;151.134;2023-05-08T10:03:59;14.00;99.90
16392;DHT22;8305;-33.882;151.134;2023-05-08T10:06:33;14.00;99.90
16392;DHT22;8305;-33.882;151.134;2023-05-08T10:09:08;14.00;99.90
16392;DHT22;8305;-33.882;151.134;2023-05-08T10:11:40;13.90;99.90
16392;DHT22;8305;-33.882;151.134;2023-05-08T10:14:16;14.00;99.90
16392;DHT22;8305;-33.882;151.134;2023-05-08T10:16:48;14.00;99.90
16392;DHT22;8305;-33.882;151.134;2023-05-08T10:19:22;14.00;99.90
16392;DHT22;8305;-33.882;151.134;2023-05-08T10:21:55;14.00;99.90
16392;DHT22;8305;-33.882;151.134;2023-05-08T10:24:32;13.90;99.90
16392;DHT22;8305;-33.882;151.134;2023-05-08T10:27:08;13.90;99.90
16392;DHT22;8305;-33.882;151.134;2023-05-08T10:29:51;13.90;99.90
16392;DHT22;8305;-33.882;151.134;2023-05-08T10:32:24;13.80;99.90
16392;DHT22;8305;-33.882;151.134;2023-05-08T10:34:58;13.80;99.90
16392;DHT22;8305;-33.882;151.134;2023-05-08T10:37:30;13.70;99.90
16392;DHT22;8305;-33.882;151.134;2023-05-08T10:40:04;13.70;99.90
16392;DHT22;8305;-33.882;151.134;2023-05-08T10:42:36;13.60;99.90
16392;DHT22;8305;-33.882;151.134;2023-05-08T10:45:10;13.60;99.90
16392;DHT22;8305;-33.882;151.134;2023-05-08T10:47:56;13.60;99.90
16392;DHT22;8305;-33.882;151.134;2023-05-08T10:50:38;13.60;99.90
16392;DHT22;8305;-33.882;151.134;2023-05-08T10:53:16;13.60;99.90
16392;DHT22;8305;-33.882;151.134;2023-05-08T10:55:50;13.50;99.90
16392;DHT22;8305;-33.882;151.134;2023-05-08T10:58:31;13.50;99.90
16392;DHT22;8305;-33.882;151.134;2023-05-08T11:01:25;13.50;99.90
16392;DHT22;8305;-33.882;151.134;2023-05-08T11:03:56;13.40;99.90
16392;DHT22;8305;-33.882;151.134;2023-05-08T11:06:44;13.30;99.90
16392;DHT22;8305;-33.882;151.134;2023-05-08T11:09:20;13.40;99.90
16392;DHT22;8305;-33.882;151.134;2023-05-08T11:12:05;13.40;99.90
16392;DHT22;8305;-33.882;151.134;2023-05-08T11:14:40;13.40;99.90
16392;DHT22;8305;-33.882;151.134;2023-05-08T11:17:14;13.30;99.90
16392;DHT22;8305;-33.882;151.134;2023-05-08T11:19:59;13.30;99.90
16392;DHT22;8305;-33.882;151.134;2023-05-08T11:22:31;13.30;99.90
16392;DHT22;8305;-33.882;151.134;2023-05-08T11:25:07;13.20;99.90
16392;DHT22;8305;-33.882;151.134;2023-05-08T11:28:11;13.20;99.90
16392;DHT22;8305;-33.882;151.134;2023-05-08T11:30:44;13.10;99.90
16392;DHT22;8305;-33.882;151.134;2023-05-08T11:33:18;13.10;99.90
16392;DHT22;8305;-33.882;151.134;2023-05-08T11:35:54;13.00;99.90
16392;DHT22;8305;-33.882;151.134;2023-05-08T11:38:30;13.00;99.90
16392;DHT22;8305;-33.882;151.134;2023-05-08T11:41:03;12.90;99.90
16392;DHT22;8305;-33.882;151.134;2023-05-08T11:44:04;12.80;99.90
16392;DHT22;8305;-33.882;151.134;2023-05-08T11:46:42;12.80;99.90
16392;DHT22;8305;-33.882;151.134;2023-05-08T11:49:17;12.80;99.90
16392;DHT22;8305;-33.882;151.134;2023-05-08T11:51:49;12.70;99.90
16392;DHT22;8305;-33.882;151.134;2023-05-08T11:54:22;12.70;99.90
16392;DHT22;8305;-33.882;151.134;2023-05-08T11:56:54;12.60;99.90
16392;DHT22;8305;-33.882;151.134;2023-05-08T11:59:26;12.60;99.90
16392;DHT22;8305;-33.882;151.134;2023-05-08T12:01:57;12.50;99.90
16392;DHT22;8305;-33.882;151.134;2023-05-08T12:04:30;12.60;99.90
16392;DHT22;8305;-33.882;151.134;2023-05-08T12:07:01;12.50;99.90
16392;DHT22;8305;-33.882;151.134;2023-05-08T12:09:33;12.40;99.90
16392;DHT22;8305;-33.882;151.134;2023-05-08T12:12:05;12.40;99.90
16392;DHT22;8305;-33.882;151.134;2023-05-08T12:14:36;12.40;99.90
16392;DHT22;8305;-33.882;151.134;2023-05-08T12:17:07;12.40;99.90
16392;DHT22;8305;-33.882;151.134;2023-05-08T12:19:42;12.30;99.90
16392;DHT22;8305;-33.882;151.134;2023-05-08T12:22:13;12.20;99.90
16392;DHT22;8305;-33.882;151.134;2023-05-08T12:24:44;12.20;99.90
16392;DHT22;8305;-33.882;151.134;2023-05-08T12:27:15;12.10;99.90
16392;DHT22;8305;-33.882;151.134;2023-05-08T12:29:46;12.10;99.90
16392;DHT22;8305;-33.882;151.134;2023-05-08T12:32:17;12.00;99.90
16392;DHT22;8305;-33.882;151.134;2023-05-08T12:34:50;12.00;99.90
16392;DHT22;8305;-33.882;151.134;2023-05-08T12:37:27;12.00;99.90
16392;DHT22;8305;-33.882;151.134;2023-05-08T12:39:58;12.00;99.90
16392;DHT22;8305;-33.882;151.134;2023-05-08T12:42:46;12.00;99.90
16392;DHT22;8305;-33.882;151.134;2023-05-08T12:45:18;12.00;99.90
16392;DHT22;8305;-33.882;151.134;2023-05-08T12:47:50;11.90;99.90
16392;DHT22;8305;-33.882;151.134;2023-05-08T12:50:27;11.90;99.90
16392;DHT22;8305;-33.882;151.134;2023-05-08T12:53:02;11.90;99.90
16392;DHT22;8305;-33.882;151.134;2023-05-08T12:55:34;11.90;99.90
16392;DHT22;8305;-33.882;151.134;2023-05-08T12:58:10;11.90;99.90
16392;DHT22;8305;-33.882;151.134;2023-05-08T13:00:42;11.80;99.90
16392;DHT22;8305;-33.882;151.134;2023-05-08T13:03:20;11.80;99.90
16392;DHT22;8305;-33.882;151.134;2023-05-08T13:05:55;11.80;99.90
16392;DHT22;8305;-33.882;151.134;2023-05-08T13:08:31;11.80;99.90
16392;DHT22;8305;-33.882;151.134;2023-05-08T13:11:03;11.70;99.90
16392;DHT22;8305;-33.882;151.134;2023-05-08T13:13:35;11.70;99.90
16392;DHT22;8305;-33.882;151.134;2023-05-08T13:16:07;11.70;99.90
16392;DHT22;8305;-33.882;151.134;2023-05-08T13:18:38;11.60;99.90
16392;DHT22;8305;-33.882;151.134;2023-05-08T13:21:11;11.60;99.90
16392;DHT22;8305;-33.882;151.134;2023-05-08T13:23:42;11.60;99.90
16392;DHT22;8305;-33.882;151.134;2023-05-08T13:26:16;11.60;99.90
16392;DHT22;8305;-33.882;151.134;2023-05-08T13:28:48;11.60;99.90
16392;DHT22;8305;-33.882;151.134;2023-05-08T13:31:20;11.60;99.90
16392;DHT22;8305;-33.882;151.134;2023-05-08T13:33:51;11.60;99.90
16392;DHT22;8305;-33.882;151.134;2023-05-08T13:36:24;11.60;99.90
16392;DHT22;8305;-33.882;151.134;2023-05-08T13:38:55;11.60;99.90
16392;DHT22;8305;-33.882;151.134;2023-05-08T13:41:26;11.60;99.90
16392;DHT22;8305;-33.882;151.134;2023-05-08T13:43:58;11.60;99.90
16392;DHT22;8305;-33.882;151.134;2023-05-08T13:46:29;11.50;99.90
16392;DHT22;8305;-33.882;151.134;2023-05-08T13:49:00;11.50;99.90
16392;DHT22;8305;-33.882;151.134;2023-05-08T13:51:33;11.50;99.90
16392;DHT22;8305;-33.882;151.134;2023-05-08T13:54:04;11.50;99.90
16392;DHT22;8305;-33.882;151.134;2023-05-08T13:56:35;11.50;99.90
16392;DHT22;8305;-33.882;151.134;2023-05-08T13:59:07;11.50;99.90
16392;DHT22;8305;-33.882;151.134;2023-05-08T14:01:39;11.60;99.90
16392;DHT22;8305;-33.882;151.134;2023-05-08T14:04:10;11.60;99.90
16392;DHT22;8305;-33.882;151.134;2023-05-08T14:06:43;11.60;99.90
16392;DHT22;8305;-33.882;151.134;2023-05-08T14:09:14;11.60;99.90
16392;DHT22;8305;-33.882;151.134;2023-05-08T14:11:45;11.60;99.90
16392;DHT22;8305;-33.882;151.134;2023-05-08T14:14:16;11.60;99.90
16392;DHT22;8305;-33.882;151.134;2023-05-08T14:16:48;11.70;99.90
16392;DHT22;8305;-33.882;151.134;2023-05-08T14:19:19;11.60;99.90
16392;DHT22;8305;-33.882;151.134;2023-05-08T14:21:52;11.60;99.90
16392;DHT22;8305;-33.882;151.134;2023-05-08T14:24:23;11.50;99.90
16392;DHT22;8305;-33.882;151.134;2023-05-08T14:26:55;11.50;99.90
16392;DHT22;8305;-33.882;151.134;2023-05-08T14:29:26;11.50;99.90
16392;DHT22;8305;-33.882;151.134;2023-05-08T14:31:57;11.40;99.90
16392;DHT22;8305;-33.882;151.134;2023-05-08T14:34:28;11.40;99.90
16392;DHT22;8305;-33.882;151.134;2023-05-08T14:37:01;11.40;99.90
16392;DHT22;8305;-33.882;151.134;2023-05-08T14:39:32;11.40;99.90
16392;DHT22;8305;-33.882;151.134;2023-05-08T14:42:03;11.40;99.90
16392;DHT22;8305;-33.882;151.134;2023-05-08T14:44:34;11.30;99.90
16392;DHT22;8305;-33.882;151.134;2023-05-08T14:47:06;11.30;99.90
16392;DHT22;8305;-33.882;151.134;2023-05-08T14:49:37;11.30;99.90
16392;DHT22;8305;-33.882;151.134;2023-05-08T14:52:10;11.30;99.90
16392;DHT22;8305;-33.882;151.134;2023-05-08T14:54:41;11.30;99.90
16392;DHT22;8305;-33.882;151.134;2023-05-08T14:57:12;11.30;99.90
16392;DHT22;8305;-33.882;151.134;2023-05-08T14:59:43;11.30;99.90
16392;DHT22;8305;-33.882;151.134;2023-05-08T15:02:14;11.40;99.90
16392;DHT22;8305;-33.882;151.134;2023-05-08T15:04:47;11.40;99.90
16392;DHT22;8305;-33.882;151.134;2023-05-08T15:07:21;11.40;99.90
16392;DHT22;8305;-33.882;151.134;2023-05-08T15:09:52;11.40;99.90
16392;DHT22;8305;-33.882;151.134;2023-05-08T15:12:23;11.30;99.90
16392;DHT22;8305;-33.882;151.134;2023-05-08T15:14:57;11.40;99.90
16392;DHT22;8305;-33.882;151.134;2023-05-08T15:17:28;11.40;99.90
16392;DHT22;8305;-33.882;151.134;2023-05-08T15:20:02;11.40;99.90
16392;DHT22;8305;-33.882;151.134;2023-05-08T15:22:36;11.30;99.90
16392;DHT22;8305;-33.882;151.134;2023-05-08T15:25:08;11.30;99.90
16392;DHT22;8305;-33.882;151.134;2023-05-08T15:27:39;11.30;99.90
16392;DHT22;8305;-33.882;151.134;2023-05-08T15:30:11;11.30;99.90
16392;DHT22;8305;-33.882;151.134;2023-05-08T15:32:43;11.30;99.90
16392;DHT22;8305;-33.882;151.134;2023-05-08T15:35:15;11.30;99.90
16392;DHT22;8305;-33.882;151.134;2023-05-08T15:37:48;11.30;99.90
16392;DHT22;8305;-33.882;151.134;2023-05-08T15:40:20;11.30;99.90
16392;DHT22;8305;-33.882;151.134;2023-05-08T15:42:51;11.40;99.90
16392;DHT22;8305;-33.882;151.134;2023-05-08T15:45:22;11.40;99.90
16392;DHT22;8305;-33.882;151.134;2023-05-08T15:47:53;11.40;99.90